sensor_id;sensor_type;location;lat;lon;timestamp;P1;durP1;ratioP1;P2;durP2;ratioP2
30850;SDS011;17567;48.382;9.102;2023-03-01T00:02:31;28.40;;;13.83;;
30850;SDS011;17567;48.382;9.102;2023-03-01T00:07:31;24.83;;;12.90;;
30850;SDS011;17567;48.382;9.102;2023-03-01T00:12:32;25.47;;;13.63;;
30850;SDS011;17567;48.382;9.102;2023-03-01T00:17:33;29.33;;;13.90;;
30850;SDS011;17567;48.382;9.102;2023-03-01T00:22:33;25.70;;;11.93;;
30850;SDS011;17567;48.382;9.102;2023-03-01T00:27:34;20.33;;;12.00;;
30850;SDS011;17567;48.382;9.102;2023-03-01T00:32:35;21.23;;;12.00;;
30850;SDS011;17567;48.382;9.102;2023-03-01T00:37:35;21.10;;;11.30;;
30850;SDS011;17567;48.382;9.102;2023-03-01T00:42:36;23.33;;;12.90;;
30850;SDS011;17567;48.382;9.102;2023-03-01T00:47:36;28.73;;;12.80;;
30850;SDS011;17567;48.382;9.102;2023-03-01T00:52:37;26.80;;;12.50;;
30850;SDS011;17567;48.382;9.102;2023-03-01T00:57:37;28.93;;;13.80;;
30850;SDS011;17567;48.382;9.102;2023-03-01T01:02:38;29.83;;;13.93;;
30850;SDS011;17567;48.382;9.102;2023-03-01T01:07:39;34.43;;;13.37;;
30850;SDS011;17567;48.382;9.102;2023-03-01T01:12:39;24.63;;;12.90;;
30850;SDS011;17567;48.382;9.102;2023-03-01T01:17:40;28.90;;;12.43;;
30850;SDS011;17567;48.382;9.102;2023-03-01T01:22:40;23.80;;;13.77;;
30850;SDS011;17567;48.382;9.102;2023-03-01T01:27:41;29.67;;;14.50;;
30850;SDS011;17567;48.382;9.102;2023-03-01T01:32:42;27.00;;;12.80;;
30850;SDS011;17567;48.382;9.102;2023-03-01T01:37:42;26.73;;;12.93;;
30850;SDS011;17567;48.382;9.102;2023-03-01T01:42:43;21.50;;;12.53;;
30850;SDS011;17567;48.382;9.102;2023-03-01T01:47:43;23.50;;;12.80;;
30850;SDS011;17567;48.382;9.102;2023-03-01T01:52:48;20.90;;;12.10;;
30850;SDS011;17567;48.382;9.102;2023-03-01T01:57:53;24.30;;;13.30;;
30850;SDS011;17567;48.382;9.102;2023-03-01T02:03:03;27.00;;;12.93;;
30850;SDS011;17567;48.382;9.102;2023-03-01T02:08:08;23.87;;;13.60;;
30850;SDS011;17567;48.382;9.102;2023-03-01T02:13:10;26.73;;;13.57;;
30850;SDS011;17567;48.382;9.102;2023-03-01T02:18:12;25.87;;;13.40;;
30850;SDS011;17567;48.382;9.102;2023-03-01T02:23:18;23.77;;;13.57;;
30850;SDS011;17567;48.382;9.102;2023-03-01T02:28:21;29.47;;;15.93;;
30850;SDS011;17567;48.382;9.102;2023-03-01T02:33:41;28.93;;;15.77;;
30850;SDS011;17567;48.382;9.102;2023-03-01T02:38:42;31.00;;;15.97;;
30850;SDS011;17567;48.382;9.102;2023-03-01T02:43:44;29.37;;;16.17;;
30850;SDS011;17567;48.382;9.102;2023-03-01T02:48:46;32.40;;;15.90;;
30850;SDS011;17567;48.382;9.102;2023-03-01T02:59:17;27.83;;;15.20;;
30850;SDS011;17567;48.382;9.102;2023-03-01T03:04:20;26.53;;;15.00;;
30850;SDS011;17567;48.382;9.102;2023-03-01T03:09:20;26.87;;;14.60;;
30850;SDS011;17567;48.382;9.102;2023-03-01T03:14:21;28.37;;;15.07;;
30850;SDS011;17567;48.382;9.102;2023-03-01T03:19:22;26.70;;;15.10;;
30850;SDS011;17567;48.382;9.102;2023-03-01T03:24:22;30.77;;;16.03;;
30850;SDS011;17567;48.382;9.102;2023-03-01T03:29:23;29.37;;;15.57;;
30850;SDS011;17567;48.382;9.102;2023-03-01T03:34:23;27.37;;;15.50;;
30850;SDS011;17567;48.382;9.102;2023-03-01T03:39:25;36.63;;;18.10;;
30850;SDS011;17567;48.382;9.102;2023-03-01T03:44:26;32.07;;;16.07;;
30850;SDS011;17567;48.382;9.102;2023-03-01T03:49:27;31.50;;;16.17;;
30850;SDS011;17567;48.382;9.102;2023-03-01T03:54:27;33.53;;;18.37;;
30850;SDS011;17567;48.382;9.102;2023-03-01T03:59:28;34.73;;;16.63;;
30850;SDS011;17567;48.382;9.102;2023-03-01T04:04:29;39.27;;;17.77;;
30850;SDS011;17567;48.382;9.102;2023-03-01T04:09:29;29.40;;;16.57;;
30850;SDS011;17567;48.382;9.102;2023-03-01T04:14:30;34.43;;;17.90;;
30850;SDS011;17567;48.382;9.102;2023-03-01T04:19:31;40.77;;;19.80;;
30850;SDS011;17567;48.382;9.102;2023-03-01T04:24:35;31.77;;;17.07;;
30850;SDS011;17567;48.382;9.102;2023-03-01T04:29:36;34.73;;;17.43;;
30850;SDS011;17567;48.382;9.102;2023-03-01T04:34:37;38.03;;;19.00;;
30850;SDS011;17567;48.382;9.102;2023-03-01T04:39:38;30.13;;;17.10;;
30850;SDS011;17567;48.382;9.102;2023-03-01T04:44:45;35.17;;;18.60;;
30850;SDS011;17567;48.382;9.102;2023-03-01T04:49:46;32.40;;;17.37;;
30850;SDS011;17567;48.382;9.102;2023-03-01T04:54:46;30.50;;;17.03;;
30850;SDS011;17567;48.382;9.102;2023-03-01T04:59:47;32.33;;;17.70;;
30850;SDS011;17567;48.382;9.102;2023-03-01T05:04:48;34.00;;;18.93;;
30850;SDS011;17567;48.382;9.102;2023-03-01T05:09:48;42.20;;;20.27;;
30850;SDS011;17567;48.382;9.102;2023-03-01T05:14:49;34.50;;;18.20;;
30850;SDS011;17567;48.382;9.102;2023-03-01T05:19:51;32.27;;;17.27;;
30850;SDS011;17567;48.382;9.102;2023-03-01T05:24:51;35.70;;;18.27;;
30850;SDS011;17567;48.382;9.102;2023-03-01T05:29:53;34.10;;;18.77;;
30850;SDS011;17567;48.382;9.102;2023-03-01T05:34:54;35.63;;;19.20;;
30850;SDS011;17567;48.382;9.102;2023-03-01T05:39:55;33.57;;;17.63;;
30850;SDS011;17567;48.382;9.102;2023-03-01T05:44:55;30.93;;;16.33;;
30850;SDS011;17567;48.382;9.102;2023-03-01T05:49:56;32.30;;;17.60;;
30850;SDS011;17567;48.382;9.102;2023-03-01T05:54:57;31.73;;;17.70;;
30850;SDS011;17567;48.382;9.102;2023-03-01T05:59:57;33.90;;;17.87;;
30850;SDS011;17567;48.382;9.102;2023-03-01T06:04:58;32.37;;;17.10;;
30850;SDS011;17567;48.382;9.102;2023-03-01T06:09:59;34.47;;;18.53;;
30850;SDS011;17567;48.382;9.102;2023-03-01T06:14:59;34.07;;;17.90;;
30850;SDS011;17567;48.382;9.102;2023-03-01T06:20:00;33.30;;;17.90;;
30850;SDS011;17567;48.382;9.102;2023-03-01T06:25:01;33.50;;;18.23;;
30850;SDS011;17567;48.382;9.102;2023-03-01T06:30:02;34.97;;;18.33;;
30850;SDS011;17567;48.382;9.102;2023-03-01T06:35:04;38.40;;;19.03;;
30850;SDS011;17567;48.382;9.102;2023-03-01T06:40:05;36.17;;;18.40;;
30850;SDS011;17567;48.382;9.102;2023-03-01T06:45:08;36.23;;;18.77;;
30850;SDS011;17567;48.382;9.102;2023-03-01T06:50:10;36.30;;;19.53;;
30850;SDS011;17567;48.382;9.102;2023-03-01T06:55:11;34.60;;;18.47;;
30850;SDS011;17567;48.382;9.102;2023-03-01T07:00:12;37.30;;;20.67;;
30850;SDS011;17567;48.382;9.102;2023-03-01T07:05:13;37.27;;;20.97;;
30850;SDS011;17567;48.382;9.102;2023-03-01T07:10:14;38.27;;;19.83;;
30850;SDS011;17567;48.382;9.102;2023-03-01T07:15:15;32.03;;;19.37;;
30850;SDS011;17567;48.382;9.102;2023-03-01T07:20:16;40.67;;;21.53;;
30850;SDS011;17567;48.382;9.102;2023-03-01T07:25:18;40.03;;;22.23;;
30850;SDS011;17567;48.382;9.102;2023-03-01T07:30:18;41.87;;;22.13;;
30850;SDS011;17567;48.382;9.102;2023-03-01T07:35:21;41.07;;;22.13;;
30850;SDS011;17567;48.382;9.102;2023-03-01T07:40:22;39.97;;;20.30;;
30850;SDS011;17567;48.382;9.102;2023-03-01T07:45:22;34.67;;;19.67;;
30850;SDS011;17567;48.382;9.102;2023-03-01T07:50:23;35.17;;;19.70;;
30850;SDS011;17567;48.382;9.102;2023-03-01T07:55:24;42.63;;;22.03;;
30850;SDS011;17567;48.382;9.102;2023-03-01T08:00:25;36.57;;;19.37;;
30850;SDS011;17567;48.382;9.102;2023-03-01T08:05:25;42.30;;;20.77;;
30850;SDS011;17567;48.382;9.102;2023-03-01T08:10:26;40.30;;;21.17;;
30850;SDS011;17567;48.382;9.102;2023-03-01T08:15:27;39.13;;;20.60;;
30850;SDS011;17567;48.382;9.102;2023-03-01T08:20:27;39.53;;;19.63;;
30850;SDS011;17567;48.382;9.102;2023-03-01T08:25:28;36.40;;;18.77;;
30850;SDS011;17567;48.382;9.102;2023-03-01T08:30:28;41.67;;;21.13;;
30850;SDS011;17567;48.382;9.102;2023-03-01T08:35:29;45.37;;;23.27;;
30850;SDS011;17567;48.382;9.102;2023-03-01T08:40:30;45.63;;;23.90;;
30850;SDS011;17567;48.382;9.102;2023-03-01T08:45:32;37.07;;;19.90;;
30850;SDS011;17567;48.382;9.102;2023-03-01T08:50:32;40.87;;;20.07;;
30850;SDS011;17567;48.382;9.102;2023-03-01T08:55:33;36.63;;;20.10;;
30850;SDS011;17567;48.382;9.102;2023-03-01T09:00:34;37.53;;;19.57;;
30850;SDS011;17567;48.382;9.102;2023-03-01T09:05:34;41.03;;;21.13;;
30850;SDS011;17567;48.382;9.102;2023-03-01T09:10:37;37.37;;;20.17;;
30850;SDS011;17567;48.382;9.102;2023-03-01T09:15:39;36.00;;;20.37;;
30850;SDS011;17567;48.382;9.102;2023-03-01T09:20:40;35.77;;;19.97;;
30850;SDS011;17567;48.382;9.102;2023-03-01T09:25:41;33.77;;;19.67;;
30850;SDS011;17567;48.382;9.102;2023-03-01T09:30:41;34.20;;;20.03;;
30850;SDS011;17567;48.382;9.102;2023-03-01T09:35:42;35.47;;;20.77;;
30850;SDS011;17567;48.382;9.102;2023-03-01T09:40:46;36.13;;;20.53;;
30850;SDS011;17567;48.382;9.102;2023-03-01T09:45:48;37.83;;;19.53;;
30850;SDS011;17567;48.382;9.102;2023-03-01T09:50:50;38.60;;;20.30;;
30850;SDS011;17567;48.382;9.102;2023-03-01T09:55:58;35.67;;;19.17;;
30850;SDS011;17567;48.382;9.102;2023-03-01T10:01:09;37.57;;;20.83;;
30850;SDS011;17567;48.382;9.102;2023-03-01T10:06:24;38.43;;;20.90;;
30850;SDS011;17567;48.382;9.102;2023-03-01T10:11:29;34.33;;;18.33;;
30850;SDS011;17567;48.382;9.102;2023-03-01T10:21:46;35.53;;;18.70;;
30850;SDS011;17567;48.382;9.102;2023-03-01T10:26:56;33.13;;;19.03;;
30850;SDS011;17567;48.382;9.102;2023-03-01T10:31:59;33.77;;;18.40;;
30850;SDS011;17567;48.382;9.102;2023-03-01T10:42:30;34.17;;;18.43;;
30850;SDS011;17567;48.382;9.102;2023-03-01T10:47:32;32.87;;;18.87;;
30850;SDS011;17567;48.382;9.102;2023-03-01T10:52:34;34.33;;;18.73;;
30850;SDS011;17567;48.382;9.102;2023-03-01T10:57:37;31.97;;;17.73;;
30850;SDS011;17567;48.382;9.102;2023-03-01T11:02:40;34.27;;;18.40;;
30850;SDS011;17567;48.382;9.102;2023-03-01T11:12:53;36.80;;;19.47;;
30850;SDS011;17567;48.382;9.102;2023-03-01T11:17:54;33.57;;;19.33;;
30850;SDS011;17567;48.382;9.102;2023-03-01T11:23:09;36.13;;;20.97;;
30850;SDS011;17567;48.382;9.102;2023-03-01T11:28:16;32.80;;;19.40;;
30850;SDS011;17567;48.382;9.102;2023-03-01T11:38:50;31.63;;;19.50;;
30850;SDS011;17567;48.382;9.102;2023-03-01T11:43:52;36.07;;;20.17;;
30850;SDS011;17567;48.382;9.102;2023-03-01T11:59:44;33.37;;;20.43;;
30850;SDS011;17567;48.382;9.102;2023-03-01T12:04:54;32.57;;;19.23;;
30850;SDS011;17567;48.382;9.102;2023-03-01T12:20:30;25.27;;;17.33;;
30850;SDS011;17567;48.382;9.102;2023-03-01T12:25:39;27.07;;;17.50;;
30850;SDS011;17567;48.382;9.102;2023-03-01T12:36:12;26.17;;;17.13;;
30850;SDS011;17567;48.382;9.102;2023-03-01T12:41:29;27.23;;;17.33;;
30850;SDS011;17567;48.382;9.102;2023-03-01T12:46:56;27.73;;;17.57;;
30850;SDS011;17567;48.382;9.102;2023-03-01T12:52:13;25.63;;;17.73;;
30850;SDS011;17567;48.382;9.102;2023-03-01T12:57:33;27.40;;;17.30;;
30850;SDS011;17567;48.382;9.102;2023-03-01T13:02:41;22.33;;;16.20;;
30850;SDS011;17567;48.382;9.102;2023-03-01T13:08:15;22.30;;;15.83;;
30850;SDS011;17567;48.382;9.102;2023-03-01T13:13:34;24.97;;;16.97;;
30850;SDS011;17567;48.382;9.102;2023-03-01T13:18:34;21.50;;;15.93;;
30850;SDS011;17567;48.382;9.102;2023-03-01T13:23:36;24.03;;;16.00;;
30850;SDS011;17567;48.382;9.102;2023-03-01T13:39:00;22.40;;;15.33;;
30850;SDS011;17567;48.382;9.102;2023-03-01T13:44:11;24.93;;;16.87;;
30850;SDS011;17567;48.382;9.102;2023-03-01T13:49:16;21.60;;;15.17;;
30850;SDS011;17567;48.382;9.102;2023-03-01T13:54:25;24.47;;;15.67;;
30850;SDS011;17567;48.382;9.102;2023-03-01T13:59:29;21.43;;;15.23;;
30850;SDS011;17567;48.382;9.102;2023-03-01T14:04:31;22.43;;;15.40;;
30850;SDS011;17567;48.382;9.102;2023-03-01T14:09:37;22.07;;;15.70;;
30850;SDS011;17567;48.382;9.102;2023-03-01T14:14:55;18.50;;;14.37;;
30850;SDS011;17567;48.382;9.102;2023-03-01T14:20:08;19.10;;;15.00;;
30850;SDS011;17567;48.382;9.102;2023-03-01T14:30:22;17.47;;;13.93;;
30850;SDS011;17567;48.382;9.102;2023-03-01T14:35:35;20.40;;;14.83;;
30850;SDS011;17567;48.382;9.102;2023-03-01T14:40:36;25.70;;;15.77;;
30850;SDS011;17567;48.382;9.102;2023-03-01T14:45:37;20.97;;;15.30;;
30850;SDS011;17567;48.382;9.102;2023-03-01T14:50:41;28.13;;;17.07;;
30850;SDS011;17567;48.382;9.102;2023-03-01T14:55:44;21.53;;;14.23;;
30850;SDS011;17567;48.382;9.102;2023-03-01T15:00:53;20.13;;;14.33;;
30850;SDS011;17567;48.382;9.102;2023-03-01T15:05:59;19.63;;;14.47;;
30850;SDS011;17567;48.382;9.102;2023-03-01T15:16:18;23.60;;;17.07;;
30850;SDS011;17567;48.382;9.102;2023-03-01T15:21:24;20.20;;;15.40;;
30850;SDS011;17567;48.382;9.102;2023-03-01T15:26:30;21.77;;;15.80;;
30850;SDS011;17567;48.382;9.102;2023-03-01T15:31:36;19.73;;;14.50;;
30850;SDS011;17567;48.382;9.102;2023-03-01T15:36:45;21.37;;;15.23;;
30850;SDS011;17567;48.382;9.102;2023-03-01T15:41:49;19.40;;;14.07;;
30850;SDS011;17567;48.382;9.102;2023-03-01T15:46:50;26.07;;;15.67;;
30850;SDS011;17567;48.382;9.102;2023-03-01T15:51:51;23.60;;;15.23;;
30850;SDS011;17567;48.382;9.102;2023-03-01T15:56:54;23.83;;;15.70;;
30850;SDS011;17567;48.382;9.102;2023-03-01T16:01:55;29.40;;;20.00;;
30850;SDS011;17567;48.382;9.102;2023-03-01T16:06:56;25.67;;;17.23;;
30850;SDS011;17567;48.382;9.102;2023-03-01T16:11:57;25.30;;;16.73;;
30850;SDS011;17567;48.382;9.102;2023-03-01T16:17:01;24.47;;;16.43;;
30850;SDS011;17567;48.382;9.102;2023-03-01T16:22:02;29.10;;;18.67;;
30850;SDS011;17567;48.382;9.102;2023-03-01T16:27:03;24.33;;;16.80;;
30850;SDS011;17567;48.382;9.102;2023-03-01T16:32:04;22.70;;;15.43;;
30850;SDS011;17567;48.382;9.102;2023-03-01T16:37:05;25.10;;;16.90;;
30850;SDS011;17567;48.382;9.102;2023-03-01T16:42:05;39.33;;;24.00;;
30850;SDS011;17567;48.382;9.102;2023-03-01T16:47:06;31.30;;;19.97;;
30850;SDS011;17567;48.382;9.102;2023-03-01T16:52:06;31.20;;;20.00;;
30850;SDS011;17567;48.382;9.102;2023-03-01T16:57:07;28.17;;;18.73;;
30850;SDS011;17567;48.382;9.102;2023-03-01T17:02:12;28.23;;;18.33;;
30850;SDS011;17567;48.382;9.102;2023-03-01T17:07:14;29.37;;;18.37;;
30850;SDS011;17567;48.382;9.102;2023-03-01T17:12:15;52.03;;;28.60;;
30850;SDS011;17567;48.382;9.102;2023-03-01T17:17:16;52.37;;;29.63;;
30850;SDS011;17567;48.382;9.102;2023-03-01T17:22:17;54.50;;;31.23;;
30850;SDS011;17567;48.382;9.102;2023-03-01T17:27:20;42.80;;;27.10;;
30850;SDS011;17567;48.382;9.102;2023-03-01T17:32:21;67.67;;;37.57;;
30850;SDS011;17567;48.382;9.102;2023-03-01T17:37:21;31.17;;;20.97;;
30850;SDS011;17567;48.382;9.102;2023-03-01T17:42:22;29.80;;;18.77;;
30850;SDS011;17567;48.382;9.102;2023-03-01T17:47:23;32.03;;;20.63;;
30850;SDS011;17567;48.382;9.102;2023-03-01T17:52:24;36.20;;;21.63;;
30850;SDS011;17567;48.382;9.102;2023-03-01T17:57:25;46.67;;;26.27;;
30850;SDS011;17567;48.382;9.102;2023-03-01T18:02:25;28.27;;;19.00;;
30850;SDS011;17567;48.382;9.102;2023-03-01T18:07:26;23.63;;;15.63;;
30850;SDS011;17567;48.382;9.102;2023-03-01T18:12:30;33.13;;;20.57;;
30850;SDS011;17567;48.382;9.102;2023-03-01T18:17:31;30.03;;;18.27;;
30850;SDS011;17567;48.382;9.102;2023-03-01T18:22:32;34.73;;;18.63;;
30850;SDS011;17567;48.382;9.102;2023-03-01T18:27:33;33.20;;;20.30;;
30850;SDS011;17567;48.382;9.102;2023-03-01T18:32:35;33.57;;;20.30;;
30850;SDS011;17567;48.382;9.102;2023-03-01T18:37:38;24.43;;;16.27;;
30850;SDS011;17567;48.382;9.102;2023-03-01T18:42:39;31.47;;;19.10;;
30850;SDS011;17567;48.382;9.102;2023-03-01T18:47:39;35.83;;;19.17;;
30850;SDS011;17567;48.382;9.102;2023-03-01T18:52:40;31.60;;;18.57;;
30850;SDS011;17567;48.382;9.102;2023-03-01T18:57:40;29.03;;;18.40;;
30850;SDS011;17567;48.382;9.102;2023-03-01T19:02:41;32.23;;;17.20;;
30850;SDS011;17567;48.382;9.102;2023-03-01T19:07:41;33.17;;;19.80;;
30850;SDS011;17567;48.382;9.102;2023-03-01T19:12:42;28.67;;;16.97;;
30850;SDS011;17567;48.382;9.102;2023-03-01T19:17:43;35.93;;;19.43;;
30850;SDS011;17567;48.382;9.102;2023-03-01T19:22:44;38.33;;;21.87;;
30850;SDS011;17567;48.382;9.102;2023-03-01T19:27:44;25.97;;;17.17;;
30850;SDS011;17567;48.382;9.102;2023-03-01T19:32:48;44.63;;;25.20;;
30850;SDS011;17567;48.382;9.102;2023-03-01T19:37:48;38.53;;;23.33;;
30850;SDS011;17567;48.382;9.102;2023-03-01T19:42:49;40.17;;;21.97;;
30850;SDS011;17567;48.382;9.102;2023-03-01T19:47:49;39.63;;;21.50;;
30850;SDS011;17567;48.382;9.102;2023-03-01T19:52:51;54.97;;;28.97;;
30850;SDS011;17567;48.382;9.102;2023-03-01T19:57:51;62.20;;;29.57;;
30850;SDS011;17567;48.382;9.102;2023-03-01T20:02:52;49.07;;;25.63;;
30850;SDS011;17567;48.382;9.102;2023-03-01T20:07:55;34.37;;;17.90;;
30850;SDS011;17567;48.382;9.102;2023-03-01T20:12:56;37.40;;;20.60;;
30850;SDS011;17567;48.382;9.102;2023-03-01T20:17:57;31.53;;;18.13;;
30850;SDS011;17567;48.382;9.102;2023-03-01T20:22:58;58.57;;;27.93;;
30850;SDS011;17567;48.382;9.102;2023-03-01T20:27:58;49.47;;;25.17;;
30850;SDS011;17567;48.382;9.102;2023-03-01T20:32:59;100.87;;;41.30;;
30850;SDS011;17567;48.382;9.102;2023-03-01T20:38:03;81.43;;;36.30;;
30850;SDS011;17567;48.382;9.102;2023-03-01T20:43:04;55.37;;;28.33;;
30850;SDS011;17567;48.382;9.102;2023-03-01T20:48:05;50.30;;;26.00;;
30850;SDS011;17567;48.382;9.102;2023-03-01T20:53:06;66.73;;;29.37;;
30850;SDS011;17567;48.382;9.102;2023-03-01T20:58:07;52.43;;;24.60;;
30850;SDS011;17567;48.382;9.102;2023-03-01T21:03:08;75.87;;;31.07;;
30850;SDS011;17567;48.382;9.102;2023-03-01T21:08:08;47.50;;;24.27;;
30850;SDS011;17567;48.382;9.102;2023-03-01T21:13:09;89.13;;;35.43;;
30850;SDS011;17567;48.382;9.102;2023-03-01T21:18:10;72.10;;;30.37;;
30850;SDS011;17567;48.382;9.102;2023-03-01T21:23:10;62.80;;;28.43;;
30850;SDS011;17567;48.382;9.102;2023-03-01T21:28:11;29.10;;;16.57;;
30850;SDS011;17567;48.382;9.102;2023-03-01T21:33:12;41.23;;;20.77;;
30850;SDS011;17567;48.382;9.102;2023-03-01T21:38:12;33.33;;;19.07;;
30850;SDS011;17567;48.382;9.102;2023-03-01T21:43:13;49.90;;;23.83;;
30850;SDS011;17567;48.382;9.102;2023-03-01T21:48:13;31.67;;;17.53;;
30850;SDS011;17567;48.382;9.102;2023-03-01T21:53:14;38.17;;;20.03;;
30850;SDS011;17567;48.382;9.102;2023-03-01T21:58:14;34.03;;;18.33;;
30850;SDS011;17567;48.382;9.102;2023-03-01T22:03:15;28.83;;;17.20;;
30850;SDS011;17567;48.382;9.102;2023-03-01T22:08:16;31.60;;;17.50;;
30850;SDS011;17567;48.382;9.102;2023-03-01T22:13:16;39.93;;;20.60;;
30850;SDS011;17567;48.382;9.102;2023-03-01T22:18:18;29.77;;;16.70;;
30850;SDS011;17567;48.382;9.102;2023-03-01T22:23:21;40.27;;;22.00;;
30850;SDS011;17567;48.382;9.102;2023-03-01T22:28:22;31.27;;;17.80;;
30850;SDS011;17567;48.382;9.102;2023-03-01T22:33:23;30.23;;;17.27;;
30850;SDS011;17567;48.382;9.102;2023-03-01T22:38:23;45.93;;;25.03;;
30850;SDS011;17567;48.382;9.102;2023-03-01T22:43:24;35.83;;;20.03;;
30850;SDS011;17567;48.382;9.102;2023-03-01T22:48:25;36.83;;;19.47;;
30850;SDS011;17567;48.382;9.102;2023-03-01T22:53:26;33.53;;;17.80;;
30850;SDS011;17567;48.382;9.102;2023-03-01T22:58:26;37.63;;;20.13;;
30850;SDS011;17567;48.382;9.102;2023-03-01T23:03:27;37.80;;;19.53;;
30850;SDS011;17567;48.382;9.102;2023-03-01T23:08:27;40.77;;;18.80;;
30850;SDS011;17567;48.382;9.102;2023-03-01T23:13:28;42.43;;;21.70;;
30850;SDS011;17567;48.382;9.102;2023-03-01T23:18:28;40.07;;;20.00;;
30850;SDS011;17567;48.382;9.102;2023-03-01T23:23:29;43.67;;;20.10;;
30850;SDS011;17567;48.382;9.102;2023-03-01T23:28:29;39.10;;;20.37;;
30850;SDS011;17567;48.382;9.102;2023-03-01T23:33:31;47.33;;;20.97;;
30850;SDS011;17567;48.382;9.102;2023-03-01T23:38:36;45.27;;;21.23;;
30850;SDS011;17567;48.382;9.102;2023-03-01T23:43:37;35.63;;;18.20;;
30850;SDS011;17567;48.382;9.102;2023-03-01T23:48:37;31.67;;;16.57;;
30850;SDS011;17567;48.382;9.102;2023-03-01T23:53:39;31.27;;;16.23;;
30850;SDS011;17567;48.382;9.102;2023-03-01T23:58:41;30.67;;;16.37;;
